sensor_id;sensor_type;location;lat;lon;timestamp;pressure;altitude;pressure_sealevel;temperature
19948;BMP180;10135;50.702;7.276;2024-01-30T06:00:17;100540.00;;;11.40
19948;BMP180;10135;50.702;7.276;2024-01-30T06:02:18;100539.00;;;11.40
19948;BMP180;10135;50.702;7.276;2024-01-30T06:04:18;100541.00;;;11.40
19948;BMP180;10135;50.702;7.276;2024-01-30T06:06:19;100539.00;;;11.40
19948;BMP180;10135;50.702;7.276;2024-01-30T06:08:20;100535.00;;;11.40
19948;BMP180;10135;50.702;7.276;2024-01-30T06:10:21;100535.00;;;11.40
19948;BMP180;10135;50.702;7.276;2024-01-30T06:12:21;100532.00;;;11.40
19948;BMP180;10135;50.702;7.276;2024-01-30T06:14:22;100528.00;;;11.40
19948;BMP180;10135;50.702;7.276;2024-01-30T06:16:22;100526.00;;;11.40
19948;BMP180;10135;50.702;7.276;2024-01-30T06:18:23;100522.00;;;11.40
19948;BMP180;10135;50.702;7.276;2024-01-30T06:20:24;100529.00;;;11.40
19948;BMP180;10135;50.702;7.276;2024-01-30T06:22:25;100523.00;;;11.40
19948;BMP180;10135;50.702;7.276;2024-01-30T06:24:25;100524.00;;;11.40
19948;BMP180;10135;50.702;7.276;2024-01-30T06:26:26;100521.00;;;11.40
19948;BMP180;10135;50.702;7.276;2024-01-30T06:28:27;100520.00;;;11.40
19948;BMP180;10135;50.702;7.276;2024-01-30T06:30:27;100519.00;;;11.40
19948;BMP180;10135;50.702;7.276;2024-01-30T06:32:28;100526.00;;;11.30
19948;BMP180;10135;50.702;7.276;2024-01-30T06:34:29;100520.00;;;11.30
19948;BMP180;10135;50.702;7.276;2024-01-30T06:36:30;100529.00;;;11.30
19948;BMP180;10135;50.702;7.276;2024-01-30T06:38:30;100525.00;;;11.30
19948;BMP180;10135;50.702;7.276;2024-01-30T06:40:31;100533.00;;;11.30
19948;BMP180;10135;50.702;7.276;2024-01-30T06:42:32;100524.00;;;11.30
19948;BMP180;10135;50.702;7.276;2024-01-30T06:44:32;100524.00;;;11.20
19948;BMP180;10135;50.702;7.276;2024-01-30T06:46:33;100538.00;;;11.20
19948;BMP180;10135;50.702;7.276;2024-01-30T06:48:34;100539.00;;;11.20
19948;BMP180;10135;50.702;7.276;2024-01-30T06:50:35;100532.00;;;11.20
19948;BMP180;10135;50.702;7.276;2024-01-30T06:52:35;100535.00;;;11.20
19948;BMP180;10135;50.702;7.276;2024-01-30T06:54:36;100536.00;;;11.20
19948;BMP180;10135;50.702;7.276;2024-01-30T06:56:37;100542.00;;;11.20
19948;BMP180;10135;50.702;7.276;2024-01-30T06:58:38;100537.00;;;11.20
19948;BMP180;10135;50.702;7.276;2024-01-30T07:00:42;100547.00;;;11.10
19948;BMP180;10135;50.702;7.276;2024-01-30T07:02:42;100546.00;;;11.10
19948;BMP180;10135;50.702;7.276;2024-01-30T07:04:43;100544.00;;;11.10
19948;BMP180;10135;50.702;7.276;2024-01-30T07:06:44;100535.00;;;11.10
19948;BMP180;10135;50.702;7.276;2024-01-30T07:08:45;100541.00;;;11.10
19948;BMP180;10135;50.702;7.276;2024-01-30T07:10:45;100536.00;;;11.10
19948;BMP180;10135;50.702;7.276;2024-01-30T07:12:46;100530.00;;;11.10
19948;BMP180;10135;50.702;7.276;2024-01-30T07:14:46;100532.00;;;11.10
19948;BMP180;10135;50.702;7.276;2024-01-30T07:16:47;100536.00;;;11.10
19948;BMP180;10135;50.702;7.276;2024-01-30T07:18:48;100530.00;;;11.10
19948;BMP180;10135;50.702;7.276;2024-01-30T07:20:49;100528.00;;;11.10
19948;BMP180;10135;50.702;7.276;2024-01-30T07:22:50;100530.00;;;11.10
19948;BMP180;10135;50.702;7.276;2024-01-30T07:24:51;100533.00;;;11.10
19948;BMP180;10135;50.702;7.276;2024-01-30T07:26:53;100526.00;;;11.10
19948;BMP180;10135;50.702;7.276;2024-01-30T07:28:56;100523.00;;;11.10
19948;BMP180;10135;50.702;7.276;2024-01-30T07:30:57;100518.00;;;11.10
19948;BMP180;10135;50.702;7.276;2024-01-30T07:32:57;100517.00;;;11.10
19948;BMP180;10135;50.702;7.276;2024-01-30T07:34:58;100513.00;;;11.20
19948;BMP180;10135;50.702;7.276;2024-01-30T07:36:59;100504.00;;;11.20
19948;BMP180;10135;50.702;7.276;2024-01-30T07:38:59;100511.00;;;11.20
19948;BMP180;10135;50.702;7.276;2024-01-30T07:41:00;100514.00;;;11.20
19948;BMP180;10135;50.702;7.276;2024-01-30T07:43:01;100525.00;;;11.20
19948;BMP180;10135;50.702;7.276;2024-01-30T07:45:04;100520.00;;;11.20
19948;BMP180;10135;50.702;7.276;2024-01-30T07:47:05;100522.00;;;11.20
19948;BMP180;10135;50.702;7.276;2024-01-30T07:49:06;100518.00;;;11.30
19948;BMP180;10135;50.702;7.276;2024-01-30T07:51:06;100526.00;;;11.30
19948;BMP180;10135;50.702;7.276;2024-01-30T07:53:07;100529.00;;;11.30
19948;BMP180;10135;50.702;7.276;2024-01-30T07:55:08;100519.00;;;11.30
19948;BMP180;10135;50.702;7.276;2024-01-30T07:57:09;100524.00;;;11.30
19948;BMP180;10135;50.702;7.276;2024-01-30T07:59:11;100534.00;;;11.40
19948;BMP180;10135;50.702;7.276;2024-01-30T08:01:12;100543.00;;;11.40
19948;BMP180;10135;50.702;7.276;2024-01-30T08:03:12;100539.00;;;11.40
19948;BMP180;10135;50.702;7.276;2024-01-30T08:05:14;100539.00;;;11.40
19948;BMP180;10135;50.702;7.276;2024-01-30T08:07:15;100544.00;;;11.50
19948;BMP180;10135;50.702;7.276;2024-01-30T08:09:18;100545.00;;;11.50
19948;BMP180;10135;50.702;7.276;2024-01-30T08:11:20;100547.00;;;11.50
19948;BMP180;10135;50.702;7.276;2024-01-30T08:13:26;100543.00;;;11.50
19948;BMP180;10135;50.702;7.276;2024-01-30T08:15:26;100543.00;;;11.50
19948;BMP180;10135;50.702;7.276;2024-01-30T08:17:27;100544.00;;;11.60
19948;BMP180;10135;50.702;7.276;2024-01-30T08:19:27;100551.00;;;11.60
19948;BMP180;10135;50.702;7.276;2024-01-30T08:21:28;100560.00;;;11.60
19948;BMP180;10135;50.702;7.276;2024-01-30T08:23:29;100559.00;;;11.60
19948;BMP180;10135;50.702;7.276;2024-01-30T08:25:29;100555.00;;;11.70
19948;BMP180;10135;50.702;7.276;2024-01-30T08:27:30;100561.00;;;11.70
19948;BMP180;10135;50.702;7.276;2024-01-30T08:29:31;100553.00;;;11.70
19948;BMP180;10135;50.702;7.276;2024-01-30T08:31:32;100558.00;;;11.80
19948;BMP180;10135;50.702;7.276;2024-01-30T08:33:33;100553.00;;;11.80
19948;BMP180;10135;50.702;7.276;2024-01-30T08:35:33;100552.00;;;11.80
19948;BMP180;10135;50.702;7.276;2024-01-30T08:37:34;100545.00;;;11.90
19948;BMP180;10135;50.702;7.276;2024-01-30T08:39:35;100543.00;;;11.90
19948;BMP180;10135;50.702;7.276;2024-01-30T08:41:35;100549.00;;;11.90
19948;BMP180;10135;50.702;7.276;2024-01-30T08:43:36;100548.00;;;12.00
19948;BMP180;10135;50.702;7.276;2024-01-30T08:45:37;100544.00;;;12.00
19948;BMP180;10135;50.702;7.276;2024-01-30T08:47:37;100540.00;;;12.00
19948;BMP180;10135;50.702;7.276;2024-01-30T08:49:38;100537.00;;;12.10
19948;BMP180;10135;50.702;7.276;2024-01-30T08:51:42;100532.00;;;12.10
19948;BMP180;10135;50.702;7.276;2024-01-30T08:53:42;100528.00;;;12.10
19948;BMP180;10135;50.702;7.276;2024-01-30T08:55:43;100532.00;;;12.20
19948;BMP180;10135;50.702;7.276;2024-01-30T08:57:44;100534.00;;;12.20
19948;BMP180;10135;50.702;7.276;2024-01-30T08:59:44;100534.00;;;12.20
19948;BMP180;10135;50.702;7.276;2024-01-30T09:01:46;100537.00;;;12.20
19948;BMP180;10135;50.702;7.276;2024-01-30T09:03:47;100536.00;;;12.20
19948;BMP180;10135;50.702;7.276;2024-01-30T09:05:48;100532.00;;;12.30
19948;BMP180;10135;50.702;7.276;2024-01-30T09:07:48;100540.00;;;12.30
19948;BMP180;10135;50.702;7.276;2024-01-30T09:09:49;100541.00;;;12.30
19948;BMP180;10135;50.702;7.276;2024-01-30T09:11:50;100552.00;;;12.30
19948;BMP180;10135;50.702;7.276;2024-01-30T09:13:50;100555.00;;;12.30
19948;BMP180;10135;50.702;7.276;2024-01-30T09:15:51;100554.00;;;12.40
19948;BMP180;10135;50.702;7.276;2024-01-30T09:17:51;100560.00;;;12.40
19948;BMP180;10135;50.702;7.276;2024-01-30T09:19:52;100570.00;;;12.40
19948;BMP180;10135;50.702;7.276;2024-01-30T09:21:53;100567.00;;;12.50
19948;BMP180;10135;50.702;7.276;2024-01-30T09:24:03;100567.00;;;12.50
19948;BMP180;10135;50.702;7.276;2024-01-30T09:26:06;100578.00;;;12.50
19948;BMP180;10135;50.702;7.276;2024-01-30T09:28:07;100574.00;;;12.60
19948;BMP180;10135;50.702;7.276;2024-01-30T09:30:08;100576.00;;;12.60
19948;BMP180;10135;50.702;7.276;2024-01-30T09:32:09;100591.00;;;12.70
19948;BMP180;10135;50.702;7.276;2024-01-30T09:34:09;100582.00;;;12.70
19948;BMP180;10135;50.702;7.276;2024-01-30T09:36:10;100588.00;;;12.80
19948;BMP180;10135;50.702;7.276;2024-01-30T09:38:11;100594.00;;;12.80
19948;BMP180;10135;50.702;7.276;2024-01-30T09:40:11;100596.00;;;12.90
19948;BMP180;10135;50.702;7.276;2024-01-30T09:44:28;100589.00;;;13.00
19948;BMP180;10135;50.702;7.276;2024-01-30T09:46:31;100592.00;;;13.00
19948;BMP180;10135;50.702;7.276;2024-01-30T09:48:34;100594.00;;;13.00
19948;BMP180;10135;50.702;7.276;2024-01-30T09:50:35;100582.00;;;13.10
19948;BMP180;10135;50.702;7.276;2024-01-30T09:52:40;100595.00;;;13.10
19948;BMP180;10135;50.702;7.276;2024-01-30T09:54:42;100593.00;;;13.10
19948;BMP180;10135;50.702;7.276;2024-01-30T09:56:43;100593.00;;;13.20
19948;BMP180;10135;50.702;7.276;2024-01-30T09:58:44;100595.00;;;13.20
19948;BMP180;10135;50.702;7.276;2024-01-30T10:00:45;100592.00;;;13.30
19948;BMP180;10135;50.702;7.276;2024-01-30T10:02:46;100602.00;;;13.40
19948;BMP180;10135;50.702;7.276;2024-01-30T10:04:51;100592.00;;;13.50
19948;BMP180;10135;50.702;7.276;2024-01-30T10:06:52;100596.00;;;13.60
19948;BMP180;10135;50.702;7.276;2024-01-30T10:08:53;100603.00;;;13.70
19948;BMP180;10135;50.702;7.276;2024-01-30T10:10:53;100608.00;;;13.80
19948;BMP180;10135;50.702;7.276;2024-01-30T10:12:54;100603.00;;;13.90
19948;BMP180;10135;50.702;7.276;2024-01-30T10:14:56;100600.00;;;14.00
19948;BMP180;10135;50.702;7.276;2024-01-30T10:16:58;100599.00;;;14.10
19948;BMP180;10135;50.702;7.276;2024-01-30T10:18:59;100597.00;;;14.20
19948;BMP180;10135;50.702;7.276;2024-01-30T10:21:00;100604.00;;;14.20
19948;BMP180;10135;50.702;7.276;2024-01-30T10:23:02;100602.00;;;14.30
19948;BMP180;10135;50.702;7.276;2024-01-30T10:25:03;100602.00;;;14.40
19948;BMP180;10135;50.702;7.276;2024-01-30T10:27:05;100607.00;;;14.40
19948;BMP180;10135;50.702;7.276;2024-01-30T10:29:06;100615.00;;;14.50
19948;BMP180;10135;50.702;7.276;2024-01-30T10:31:07;100613.00;;;14.50
19948;BMP180;10135;50.702;7.276;2024-01-30T10:33:08;100617.00;;;14.60
19948;BMP180;10135;50.702;7.276;2024-01-30T10:35:08;100611.00;;;14.70
19948;BMP180;10135;50.702;7.276;2024-01-30T10:37:11;100615.00;;;14.70
19948;BMP180;10135;50.702;7.276;2024-01-30T10:39:18;100605.00;;;14.80
19948;BMP180;10135;50.702;7.276;2024-01-30T10:41:26;100614.00;;;14.90
19948;BMP180;10135;50.702;7.276;2024-01-30T10:43:41;100618.00;;;14.90
19948;BMP180;10135;50.702;7.276;2024-01-30T10:45:49;100610.00;;;15.00
19948;BMP180;10135;50.702;7.276;2024-01-30T10:47:53;100618.00;;;15.10
19948;BMP180;10135;50.702;7.276;2024-01-30T10:49:57;100627.00;;;15.10
19948;BMP180;10135;50.702;7.276;2024-01-30T10:51:59;100618.00;;;15.10
19948;BMP180;10135;50.702;7.276;2024-01-30T10:54:00;100622.00;;;15.20
19948;BMP180;10135;50.702;7.276;2024-01-30T10:56:03;100618.00;;;15.20
19948;BMP180;10135;50.702;7.276;2024-01-30T10:58:05;100617.00;;;15.30
19948;BMP180;10135;50.702;7.276;2024-01-30T11:00:14;100615.00;;;15.30
19948;BMP180;10135;50.702;7.276;2024-01-30T11:02:16;100610.00;;;15.30
19948;BMP180;10135;50.702;7.276;2024-01-30T11:04:18;100613.00;;;15.30
19948;BMP180;10135;50.702;7.276;2024-01-30T11:06:31;100614.00;;;15.30
19948;BMP180;10135;50.702;7.276;2024-01-30T11:08:34;100615.00;;;15.30
19948;BMP180;10135;50.702;7.276;2024-01-30T11:10:46;100609.00;;;15.30
19948;BMP180;10135;50.702;7.276;2024-01-30T11:12:47;100608.00;;;15.30
19948;BMP180;10135;50.702;7.276;2024-01-30T11:14:48;100601.00;;;15.30
19948;BMP180;10135;50.702;7.276;2024-01-30T11:16:49;100603.00;;;15.40
19948;BMP180;10135;50.702;7.276;2024-01-30T11:18:50;100602.00;;;15.30
19948;BMP180;10135;50.702;7.276;2024-01-30T11:20:57;100601.00;;;15.40
19948;BMP180;10135;50.702;7.276;2024-01-30T11:22:59;100589.00;;;15.40
19948;BMP180;10135;50.702;7.276;2024-01-30T11:25:02;100580.00;;;15.40
19948;BMP180;10135;50.702;7.276;2024-01-30T11:27:09;100581.00;;;15.40
19948;BMP180;10135;50.702;7.276;2024-01-30T11:29:13;100592.00;;;15.40
19948;BMP180;10135;50.702;7.276;2024-01-30T11:31:19;100589.00;;;15.40
19948;BMP180;10135;50.702;7.276;2024-01-30T11:33:30;100583.00;;;15.30
19948;BMP180;10135;50.702;7.276;2024-01-30T11:35:35;100588.00;;;15.40
19948;BMP180;10135;50.702;7.276;2024-01-30T11:37:37;100593.00;;;15.40
19948;BMP180;10135;50.702;7.276;2024-01-30T11:39:42;100589.00;;;15.30
19948;BMP180;10135;50.702;7.276;2024-01-30T11:41:45;100581.00;;;15.30
19948;BMP180;10135;50.702;7.276;2024-01-30T11:43:55;100586.00;;;15.30
19948;BMP180;10135;50.702;7.276;2024-01-30T11:45:56;100576.00;;;15.30
19948;BMP180;10135;50.702;7.276;2024-01-30T11:47:57;100580.00;;;15.30
19948;BMP180;10135;50.702;7.276;2024-01-30T11:49:58;100575.00;;;15.30
19948;BMP180;10135;50.702;7.276;2024-01-30T11:51:59;100570.00;;;15.30
19948;BMP180;10135;50.702;7.276;2024-01-30T11:53:59;100575.00;;;15.30
19948;BMP180;10135;50.702;7.276;2024-01-30T11:56:00;100564.00;;;15.30
19948;BMP180;10135;50.702;7.276;2024-01-30T11:58:01;100565.00;;;15.30
19948;BMP180;10135;50.702;7.276;2024-01-30T12:00:04;100564.00;;;15.30
19948;BMP180;10135;50.702;7.276;2024-01-30T12:02:16;100564.00;;;15.30
19948;BMP180;10135;50.702;7.276;2024-01-30T12:04:18;100567.00;;;15.30
19948;BMP180;10135;50.702;7.276;2024-01-30T12:06:18;100564.00;;;15.30
19948;BMP180;10135;50.702;7.276;2024-01-30T12:08:19;100575.00;;;15.30
19948;BMP180;10135;50.702;7.276;2024-01-30T12:10:21;100574.00;;;15.20
19948;BMP180;10135;50.702;7.276;2024-01-30T12:12:27;100580.00;;;15.20
19948;BMP180;10135;50.702;7.276;2024-01-30T12:14:28;100579.00;;;15.20
19948;BMP180;10135;50.702;7.276;2024-01-30T12:16:29;100578.00;;;15.10
19948;BMP180;10135;50.702;7.276;2024-01-30T12:18:30;100583.00;;;15.10
19948;BMP180;10135;50.702;7.276;2024-01-30T12:20:30;100572.00;;;15.10
19948;BMP180;10135;50.702;7.276;2024-01-30T12:22:31;100581.00;;;15.10
19948;BMP180;10135;50.702;7.276;2024-01-30T12:24:32;100567.00;;;15.10
19948;BMP180;10135;50.702;7.276;2024-01-30T12:26:33;100571.00;;;15.00
19948;BMP180;10135;50.702;7.276;2024-01-30T12:28:34;100559.00;;;15.00
19948;BMP180;10135;50.702;7.276;2024-01-30T12:30:35;100557.00;;;14.90
19948;BMP180;10135;50.702;7.276;2024-01-30T12:32:46;100564.00;;;14.90
19948;BMP180;10135;50.702;7.276;2024-01-30T12:34:46;100565.00;;;14.90
19948;BMP180;10135;50.702;7.276;2024-01-30T12:36:48;100566.00;;;14.90
19948;BMP180;10135;50.702;7.276;2024-01-30T12:38:50;100571.00;;;14.80
19948;BMP180;10135;50.702;7.276;2024-01-30T12:40:59;100559.00;;;14.80
19948;BMP180;10135;50.702;7.276;2024-01-30T12:43:00;100559.00;;;14.80
19948;BMP180;10135;50.702;7.276;2024-01-30T12:45:05;100580.00;;;14.80
19948;BMP180;10135;50.702;7.276;2024-01-30T12:47:08;100574.00;;;14.80
19948;BMP180;10135;50.702;7.276;2024-01-30T12:49:09;100572.00;;;14.80
19948;BMP180;10135;50.702;7.276;2024-01-30T12:51:10;100590.00;;;14.70
19948;BMP180;10135;50.702;7.276;2024-01-30T12:53:11;100595.00;;;14.70
19948;BMP180;10135;50.702;7.276;2024-01-30T12:55:13;100601.00;;;14.70
19948;BMP180;10135;50.702;7.276;2024-01-30T12:57:13;100596.00;;;14.70
19948;BMP180;10135;50.702;7.276;2024-01-30T12:59:14;100595.00;;;14.70
19948;BMP180;10135;50.702;7.276;2024-01-30T13:01:15;100606.00;;;14.70
19948;BMP180;10135;50.702;7.276;2024-01-30T13:03:15;100595.00;;;14.70
19948;BMP180;10135;50.702;7.276;2024-01-30T13:05:16;100598.00;;;14.70
19948;BMP180;10135;50.702;7.276;2024-01-30T13:07:17;100595.00;;;14.70
19948;BMP180;10135;50.702;7.276;2024-01-30T13:09:18;100597.00;;;14.70
19948;BMP180;10135;50.702;7.276;2024-01-30T13:11:19;100593.00;;;14.60
19948;BMP180;10135;50.702;7.276;2024-01-30T13:13:20;100595.00;;;14.60
19948;BMP180;10135;50.702;7.276;2024-01-30T13:15:21;100589.00;;;14.60
19948;BMP180;10135;50.702;7.276;2024-01-30T13:17:23;100602.00;;;14.60
19948;BMP180;10135;50.702;7.276;2024-01-30T13:19:23;100583.00;;;14.60
19948;BMP180;10135;50.702;7.276;2024-01-30T13:21:24;100590.00;;;14.60
19948;BMP180;10135;50.702;7.276;2024-01-30T13:23:25;100587.00;;;14.50
19948;BMP180;10135;50.702;7.276;2024-01-30T13:25:25;100593.00;;;14.50
19948;BMP180;10135;50.702;7.276;2024-01-30T13:27:26;100593.00;;;14.50
19948;BMP180;10135;50.702;7.276;2024-01-30T13:29:27;100587.00;;;14.50
19948;BMP180;10135;50.702;7.276;2024-01-30T13:31:27;100594.00;;;14.50
19948;BMP180;10135;50.702;7.276;2024-01-30T13:33:28;100593.00;;;14.50
19948;BMP180;10135;50.702;7.276;2024-01-30T13:35:29;100592.00;;;14.50
19948;BMP180;10135;50.702;7.276;2024-01-30T13:37:30;100594.00;;;14.50
19948;BMP180;10135;50.702;7.276;2024-01-30T13:39:30;100590.00;;;14.50
19948;BMP180;10135;50.702;7.276;2024-01-30T13:41:31;100593.00;;;14.50
19948;BMP180;10135;50.702;7.276;2024-01-30T13:43:32;100599.00;;;14.50
19948;BMP180;10135;50.702;7.276;2024-01-30T13:45:33;100598.00;;;14.50
19948;BMP180;10135;50.702;7.276;2024-01-30T13:47:33;100598.00;;;14.50
19948;BMP180;10135;50.702;7.276;2024-01-30T13:49:34;100593.00;;;14.50
19948;BMP180;10135;50.702;7.276;2024-01-30T13:51:35;100603.00;;;14.50
19948;BMP180;10135;50.702;7.276;2024-01-30T13:53:35;100602.00;;;14.50
19948;BMP180;10135;50.702;7.276;2024-01-30T13:55:36;100597.00;;;14.50
19948;BMP180;10135;50.702;7.276;2024-01-30T13:57:37;100602.00;;;14.50
19948;BMP180;10135;50.702;7.276;2024-01-30T13:59:38;100606.00;;;14.50
19948;BMP180;10135;50.702;7.276;2024-01-30T14:01:39;100608.00;;;14.50
19948;BMP180;10135;50.702;7.276;2024-01-30T14:03:40;100614.00;;;14.50
19948;BMP180;10135;50.702;7.276;2024-01-30T14:05:40;100614.00;;;14.50
19948;BMP180;10135;50.702;7.276;2024-01-30T14:07:43;100620.00;;;14.50
19948;BMP180;10135;50.702;7.276;2024-01-30T14:09:44;100624.00;;;14.60
19948;BMP180;10135;50.702;7.276;2024-01-30T14:11:45;100626.00;;;14.60
19948;BMP180;10135;50.702;7.276;2024-01-30T14:13:45;100624.00;;;14.60
19948;BMP180;10135;50.702;7.276;2024-01-30T14:15:46;100630.00;;;14.60
19948;BMP180;10135;50.702;7.276;2024-01-30T14:17:47;100630.00;;;14.60
19948;BMP180;10135;50.702;7.276;2024-01-30T14:19:49;100626.00;;;14.60
19948;BMP180;10135;50.702;7.276;2024-01-30T14:21:49;100629.00;;;14.60
19948;BMP180;10135;50.702;7.276;2024-01-30T14:23:50;100635.00;;;14.70
19948;BMP180;10135;50.702;7.276;2024-01-30T14:25:51;100631.00;;;14.70
19948;BMP180;10135;50.702;7.276;2024-01-30T14:27:52;100627.00;;;14.70
19948;BMP180;10135;50.702;7.276;2024-01-30T14:29:52;100632.00;;;14.70
19948;BMP180;10135;50.702;7.276;2024-01-30T14:31:53;100633.00;;;14.70
19948;BMP180;10135;50.702;7.276;2024-01-30T14:33:55;100632.00;;;14.80
19948;BMP180;10135;50.702;7.276;2024-01-30T14:35:56;100633.00;;;14.80
19948;BMP180;10135;50.702;7.276;2024-01-30T14:37:56;100636.00;;;14.80
19948;BMP180;10135;50.702;7.276;2024-01-30T14:39:57;100631.00;;;14.80
19948;BMP180;10135;50.702;7.276;2024-01-30T14:41:58;100643.00;;;14.80
19948;BMP180;10135;50.702;7.276;2024-01-30T14:43:58;100632.00;;;14.80
19948;BMP180;10135;50.702;7.276;2024-01-30T14:45:59;100629.00;;;14.80
19948;BMP180;10135;50.702;7.276;2024-01-30T14:48:00;100634.00;;;14.80
19948;BMP180;10135;50.702;7.276;2024-01-30T14:50:01;100643.00;;;14.80
19948;BMP180;10135;50.702;7.276;2024-01-30T14:52:02;100641.00;;;14.80
19948;BMP180;10135;50.702;7.276;2024-01-30T14:54:04;100639.00;;;14.80
19948;BMP180;10135;50.702;7.276;2024-01-30T14:56:06;100638.00;;;14.80
19948;BMP180;10135;50.702;7.276;2024-01-30T14:58:07;100633.00;;;14.90
19948;BMP180;10135;50.702;7.276;2024-01-30T15:00:08;100635.00;;;14.90
19948;BMP180;10135;50.702;7.276;2024-01-30T15:02:09;100637.00;;;14.90
19948;BMP180;10135;50.702;7.276;2024-01-30T15:04:10;100638.00;;;14.90
19948;BMP180;10135;50.702;7.276;2024-01-30T15:06:12;100640.00;;;14.90
19948;BMP180;10135;50.702;7.276;2024-01-30T15:08:13;100638.00;;;14.90
19948;BMP180;10135;50.702;7.276;2024-01-30T15:10:14;100643.00;;;15.00
19948;BMP180;10135;50.702;7.276;2024-01-30T15:12:15;100649.00;;;15.00
19948;BMP180;10135;50.702;7.276;2024-01-30T15:14:15;100649.00;;;15.00
19948;BMP180;10135;50.702;7.276;2024-01-30T15:16:16;100650.00;;;15.00
19948;BMP180;10135;50.702;7.276;2024-01-30T15:18:17;100651.00;;;15.00
19948;BMP180;10135;50.702;7.276;2024-01-30T15:20:17;100656.00;;;15.00
19948;BMP180;10135;50.702;7.276;2024-01-30T15:22:18;100659.00;;;15.10
19948;BMP180;10135;50.702;7.276;2024-01-30T15:24:19;100661.00;;;15.10
19948;BMP180;10135;50.702;7.276;2024-01-30T15:26:25;100663.00;;;15.10
19948;BMP180;10135;50.702;7.276;2024-01-30T15:28:37;100672.00;;;15.10
19948;BMP180;10135;50.702;7.276;2024-01-30T15:30:37;100672.00;;;15.10
19948;BMP180;10135;50.702;7.276;2024-01-30T15:32:38;100676.00;;;15.10
19948;BMP180;10135;50.702;7.276;2024-01-30T15:34:39;100675.00;;;15.10
19948;BMP180;10135;50.702;7.276;2024-01-30T15:36:40;100672.00;;;15.10
19948;BMP180;10135;50.702;7.276;2024-01-30T15:38:41;100680.00;;;15.10
19948;BMP180;10135;50.702;7.276;2024-01-30T15:40:42;100676.00;;;15.10
19948;BMP180;10135;50.702;7.276;2024-01-30T15:42:42;100678.00;;;15.20
19948;BMP180;10135;50.702;7.276;2024-01-30T15:44:43;100683.00;;;15.20
19948;BMP180;10135;50.702;7.276;2024-01-30T15:46:44;100684.00;;;15.20
19948;BMP180;10135;50.702;7.276;2024-01-30T15:48:45;100698.00;;;15.20
19948;BMP180;10135;50.702;7.276;2024-01-30T15:50:46;100693.00;;;15.20
19948;BMP180;10135;50.702;7.276;2024-01-30T15:52:46;100699.00;;;15.20
19948;BMP180;10135;50.702;7.276;2024-01-30T15:54:47;100701.00;;;15.20
19948;BMP180;10135;50.702;7.276;2024-01-30T15:56:48;100701.00;;;15.20
19948;BMP180;10135;50.702;7.276;2024-01-30T15:58:49;100703.00;;;15.20
19948;BMP180;10135;50.702;7.276;2024-01-30T16:00:50;100706.00;;;15.20
19948;BMP180;10135;50.702;7.276;2024-01-30T16:02:50;100701.00;;;15.20
19948;BMP180;10135;50.702;7.276;2024-01-30T16:04:51;100704.00;;;15.00
19948;BMP180;10135;50.702;7.276;2024-01-30T16:06:52;100712.00;;;15.10
19948;BMP180;10135;50.702;7.276;2024-01-30T16:08:52;100713.00;;;15.20
19948;BMP180;10135;50.702;7.276;2024-01-30T16:10:53;100710.00;;;15.20
19948;BMP180;10135;50.702;7.276;2024-01-30T16:12:54;100720.00;;;15.20
19948;BMP180;10135;50.702;7.276;2024-01-30T16:14:54;100712.00;;;15.20
19948;BMP180;10135;50.702;7.276;2024-01-30T16:16:55;100720.00;;;15.20
19948;BMP180;10135;50.702;7.276;2024-01-30T16:18:56;100722.00;;;15.20
19948;BMP180;10135;50.702;7.276;2024-01-30T16:20:57;100723.00;;;15.20
19948;BMP180;10135;50.702;7.276;2024-01-30T16:22:58;100719.00;;;15.20
19948;BMP180;10135;50.702;7.276;2024-01-30T16:24:59;100723.00;;;15.20
19948;BMP180;10135;50.702;7.276;2024-01-30T16:26:59;100726.00;;;15.20
19948;BMP180;10135;50.702;7.276;2024-01-30T16:29:00;100725.00;;;15.20
19948;BMP180;10135;50.702;7.276;2024-01-30T16:31:01;100735.00;;;15.20
19948;BMP180;10135;50.702;7.276;2024-01-30T16:33:02;100726.00;;;15.20
19948;BMP180;10135;50.702;7.276;2024-01-30T16:35:04;100729.00;;;15.20
19948;BMP180;10135;50.702;7.276;2024-01-30T16:37:05;100727.00;;;15.20
19948;BMP180;10135;50.702;7.276;2024-01-30T16:39:06;100730.00;;;15.20
19948;BMP180;10135;50.702;7.276;2024-01-30T16:41:07;100733.00;;;15.20
19948;BMP180;10135;50.702;7.276;2024-01-30T16:43:07;100734.00;;;15.20
19948;BMP180;10135;50.702;7.276;2024-01-30T16:45:08;100734.00;;;15.20
19948;BMP180;10135;50.702;7.276;2024-01-30T16:47:09;100739.00;;;15.20
19948;BMP180;10135;50.702;7.276;2024-01-30T16:49:10;100742.00;;;15.20
19948;BMP180;10135;50.702;7.276;2024-01-30T16:51:11;100744.00;;;15.20
19948;BMP180;10135;50.702;7.276;2024-01-30T16:53:11;100736.00;;;15.20
19948;BMP180;10135;50.702;7.276;2024-01-30T16:55:13;100741.00;;;15.20
19948;BMP180;10135;50.702;7.276;2024-01-30T16:57:14;100747.00;;;15.20
19948;BMP180;10135;50.702;7.276;2024-01-30T16:59:16;100749.00;;;14.90
19948;BMP180;10135;50.702;7.276;2024-01-30T17:01:16;100750.00;;;15.10
19948;BMP180;10135;50.702;7.276;2024-01-30T17:03:17;100752.00;;;15.20
19948;BMP180;10135;50.702;7.276;2024-01-30T17:05:18;100753.00;;;15.20
19948;BMP180;10135;50.702;7.276;2024-01-30T17:07:18;100754.00;;;15.30
19948;BMP180;10135;50.702;7.276;2024-01-30T17:09:19;100760.00;;;15.30
19948;BMP180;10135;50.702;7.276;2024-01-30T17:11:20;100766.00;;;15.30
19948;BMP180;10135;50.702;7.276;2024-01-30T17:13:21;100768.00;;;15.30
19948;BMP180;10135;50.702;7.276;2024-01-30T17:15:21;100776.00;;;15.30
19948;BMP180;10135;50.702;7.276;2024-01-30T17:17:22;100784.00;;;15.30
19948;BMP180;10135;50.702;7.276;2024-01-30T17:19:23;100798.00;;;15.30
19948;BMP180;10135;50.702;7.276;2024-01-30T17:21:25;100796.00;;;15.30
19948;BMP180;10135;50.702;7.276;2024-01-30T17:23:25;100807.00;;;15.30
19948;BMP180;10135;50.702;7.276;2024-01-30T17:25:26;100806.00;;;15.20
19948;BMP180;10135;50.702;7.276;2024-01-30T17:27:27;100816.00;;;15.20
19948;BMP180;10135;50.702;7.276;2024-01-30T17:29:27;100821.00;;;15.20
19948;BMP180;10135;50.702;7.276;2024-01-30T17:31:28;100820.00;;;15.20